Time;durP1;ratioP1;P1;durP2;ratioP2;P2;SDS_P1;SDS_P2;PMS_P1;PMS_P2;Temp;Humidity;BMP_temperature;BMP_pressure;BME280_temperature;BME280_humidity;BME280_pressure;Samples;Min_cycle;Max_cycle;Signal;HPM_P1;HPM_P2
2022/10/16 00:01:21;;;;;;;9.33;4.37;;;21.60;63.10;;;;;;5029531;28;20566;-81
2022/10/16 00:03:49;;;;;;;4.90;4.10;;;21.60;63.10;;;;;;5028767;28;20483;-82
2022/10/16 00:06:24;;;;;;;4.50;4.10;;;21.60;63.20;;;;;;5034084;28;20490;-81
2022/10/16 00:08:52;;;;;;;4.77;4.37;;;21.60;63.10;;;;;;5034416;28;20437;-82
2022/10/16 00:11:21;;;;;;;4.50;4.10;;;21.50;63.10;;;;;;5035451;28;20447;-82
2022/10/16 00:13:53;;;;;;;7.03;4.10;;;21.50;63.00;;;;;;5035190;28;20522;-81
2022/10/16 00:16:21;;;;;;;4.47;4.07;;;21.50;62.90;;;;;;5030906;28;20452;-82
2022/10/16 00:18:49;;;;;;;4.97;4.40;;;21.50;62.80;;;;;;5035174;28;20435;-81
2022/10/16 00:21:19;;;;;;;4.20;3.90;;;21.50;62.90;;;;;;5025819;28;20581;-84
2022/10/16 00:23:52;;;;;;;4.13;3.80;;;21.50;63.10;;;;;;5023402;28;20449;-83
2022/10/16 00:26:20;;;;;;;4.37;4.00;;;21.50;63.00;;;;;;5036565;28;20448;-82
2022/10/16 00:28:49;;;;;;;4.73;3.73;;;21.50;62.80;;;;;;5038137;28;20485;-83
2022/10/16 00:31:17;;;;;;;4.10;3.60;;;21.50;62.90;;;;;;5034853;28;20494;-82
2022/10/16 00:33:45;;;;;;;4.43;3.70;;;21.40;62.80;;;;;;5042979;28;20421;-83
2022/10/16 00:36:15;;;;;;;5.00;3.60;;;21.40;62.70;;;;;;5037745;28;20455;-82
2022/10/16 00:38:44;;;;;;;5.13;4.13;;;21.40;62.90;;;;;;5038080;28;20441;-82
2022/10/16 00:41:15;;;;;;;5.07;3.70;;;21.40;62.90;;;;;;5036490;28;20426;-81
2022/10/16 00:43:44;;;;;;;3.90;3.43;;;21.40;62.50;;;;;;5037483;28;20426;-81
2022/10/16 00:46:16;;;;;;;3.97;3.57;;;21.40;62.70;;;;;;5037540;28;20470;-82
2022/10/16 00:48:46;;;;;;;3.90;3.60;;;21.40;62.70;;;;;;5037567;28;20399;-82
2022/10/16 00:51:14;;;;;;;3.70;3.40;;;21.30;62.70;;;;;;5035191;28;20443;-82
2022/10/16 00:53:44;;;;;;;3.50;3.20;;;21.40;62.60;;;;;;5038092;28;20445;-83
2022/10/16 00:56:12;;;;;;;3.53;3.20;;;21.30;62.60;;;;;;5037443;28;20418;-82
2022/10/16 00:58:40;;;;;;;3.63;3.40;;;21.30;62.60;;;;;;5037901;28;20452;-84
2022/10/16 01:01:08;;;;;;;4.43;3.43;;;21.30;62.70;;;;;;5036668;28;20413;-82
2022/10/16 01:03:37;;;;;;;4.20;3.00;;;21.30;62.50;;;;;;5036433;28;20443;-81
2022/10/16 01:06:16;;;;;;;5.07;3.47;;;21.20;62.60;;;;;;5035812;28;20456;-82
2022/10/16 01:08:50;;;;;;;3.40;3.17;;;21.20;62.80;;;;;;5037600;28;20443;-82
2022/10/16 01:11:21;;;;;;;3.23;3.03;;;21.20;62.90;;;;;;5037058;28;20478;-83
2022/10/16 01:13:51;;;;;;;3.30;3.10;;;21.20;62.70;;;;;;5037529;28;20399;-83
2022/10/16 01:16:21;;;;;;;2.87;2.60;;;21.20;62.70;;;;;;5036210;28;20428;-83
2022/10/16 01:18:51;;;;;;;4.60;3.70;;;21.20;62.60;;;;;;5035431;28;20447;-82
2022/10/16 01:21:21;;;;;;;3.10;2.90;;;21.20;62.60;;;;;;5037002;28;20467;-82
2022/10/16 01:23:56;;;;;;;2.70;2.60;;;21.20;62.60;;;;;;5030411;28;20466;-82
2022/10/16 01:26:36;;;;;;;4.00;3.33;;;21.20;62.60;;;;;;5032566;28;20426;-82
2022/10/16 01:29:08;;;;;;;3.60;3.30;;;21.20;62.60;;;;;;5034223;28;20425;-82
2022/10/16 01:31:37;;;;;;;3.07;2.83;;;21.10;62.80;;;;;;5028825;28;20464;-82
2022/10/16 01:34:07;;;;;;;3.20;3.00;;;21.10;62.50;;;;;;5015734;28;20448;-82
2022/10/16 01:36:38;;;;;;;4.70;2.90;;;21.10;62.50;;;;;;5031131;28;20440;-82
2022/10/16 01:39:07;;;;;;;2.97;2.67;;;21.10;62.40;;;;;;5035155;28;20443;-82
2022/10/16 01:41:36;;;;;;;3.17;2.93;;;21.10;62.60;;;;;;5032290;28;20430;-83
2022/10/16 01:44:07;;;;;;;3.33;3.03;;;21.10;62.50;;;;;;5035117;28;20442;-82
2022/10/16 01:46:37;;;;;;;3.20;2.97;;;21.10;62.50;;;;;;5036345;28;20424;-83
2022/10/16 01:49:05;;;;;;;2.77;2.67;;;21.10;62.50;;;;;;5024910;28;20431;-82
2022/10/16 01:51:33;;;;;;;6.03;2.73;;;21.10;62.40;;;;;;5017520;28;20447;-81
2022/10/16 01:54:01;;;;;;;3.10;2.90;;;21.10;62.40;;;;;;5021132;28;20422;-82
2022/10/16 01:56:29;;;;;;;2.90;2.67;;;21.10;62.60;;;;;;5034123;28;20425;-83
2022/10/16 01:58:59;;;;;;;3.03;2.83;;;21.10;62.40;;;;;;5034206;28;20460;-82
2022/10/16 02:01:30;;;;;;;2.70;2.50;;;21.10;62.40;;;;;;5032476;28;20474;-81
2022/10/16 02:03:59;;;;;;;3.40;3.10;;;21.10;62.60;;;;;;5030724;28;20442;-83
2022/10/16 02:06:29;;;;;;;3.70;3.10;;;21.10;62.40;;;;;;5035705;28;20459;-83
2022/10/16 02:08:57;;;;;;;3.00;2.80;;;21.10;62.40;;;;;;5029727;28;20464;-81
2022/10/16 02:11:25;;;;;;;3.67;2.97;;;21.10;62.30;;;;;;5031388;28;20468;-83
2022/10/16 02:13:55;;;;;;;3.83;3.07;;;21.10;62.40;;;;;;5028579;28;20447;-82
2022/10/16 02:16:33;;;;;;;3.17;2.93;;;21.10;62.20;;;;;;5027133;28;20449;-83
2022/10/16 02:19:01;;;;;;;2.90;2.60;;;21.10;62.20;;;;;;5035636;28;20550;-83
2022/10/16 02:21:30;;;;;;;2.80;2.60;;;21.10;62.30;;;;;;5033895;28;20483;-83
2022/10/16 02:24:00;;;;;;;3.10;2.90;;;21.10;62.20;;;;;;5036361;28;20482;-82
2022/10/16 02:26:29;;;;;;;2.63;2.43;;;21.10;62.30;;;;;;5028862;28;20463;-83
2022/10/16 02:29:00;;;;;;;2.67;2.47;;;21.10;62.30;;;;;;5017424;28;20433;-83
2022/10/16 02:31:30;;;;;;;2.93;2.70;;;21.10;62.30;;;;;;5031389;28;20480;-83
2022/10/16 02:33:59;;;;;;;3.83;3.07;;;21.10;62.30;;;;;;5039906;28;20460;-83
2022/10/16 02:36:27;;;;;;;2.70;2.53;;;21.10;62.20;;;;;;5041677;28;20527;-84
2022/10/16 02:38:55;;;;;;;2.97;2.77;;;21.10;62.30;;;;;;5026293;28;20437;-83
2022/10/16 02:41:24;;;;;;;2.13;2.03;;;21.10;62.20;;;;;;5037817;28;20478;-83
2022/10/16 02:43:52;;;;;;;2.80;2.60;;;21.00;62.20;;;;;;5033923;28;20464;-83
2022/10/16 02:46:21;;;;;;;3.30;2.63;;;21.00;62.10;;;;;;5036520;28;20460;-83
2022/10/16 02:48:50;;;;;;;2.67;2.57;;;21.00;62.10;;;;;;5039564;28;20434;-84
2022/10/16 02:51:18;;;;;;;2.40;2.20;;;21.00;62.10;;;;;;5032588;28;20480;-84
2022/10/16 02:53:46;;;;;;;2.57;2.40;;;21.00;62.20;;;;;;5039243;28;20451;-84
2022/10/16 02:56:15;;;;;;;2.30;2.20;;;21.00;62.10;;;;;;5042157;28;20429;-83
2022/10/16 02:58:43;;;;;;;2.20;2.10;;;21.00;62.10;;;;;;5044427;28;20441;-85
2022/10/16 03:01:12;;;;;;;2.77;2.57;;;21.00;62.00;;;;;;5044220;28;20449;-83
2022/10/16 03:03:40;;;;;;;3.23;2.73;;;21.00;62.00;;;;;;5029962;28;20922;-83
2022/10/16 03:06:10;;;;;;;2.60;2.40;;;21.00;62.10;;;;;;5040292;28;20459;-83
2022/10/16 03:08:38;;;;;;;3.03;2.83;;;21.00;61.90;;;;;;5044687;28;20451;-83
2022/10/16 03:11:06;;;;;;;4.07;2.43;;;21.00;61.90;;;;;;5044618;28;20532;-84
2022/10/16 03:13:34;;;;;;;2.73;2.40;;;21.00;62.10;;;;;;5043993;28;20457;-83
2022/10/16 03:16:02;;;;;;;2.60;2.40;;;20.90;61.90;;;;;;5043263;28;20463;-83
2022/10/16 03:18:30;;;;;;;2.40;2.30;;;20.90;61.90;;;;;;5038966;28;20426;-82
2022/10/16 03:20:58;;;;;;;2.43;2.33;;;20.90;61.90;;;;;;5043623;28;20419;-83
2022/10/16 03:23:28;;;;;;;2.23;2.13;;;20.90;62.00;;;;;;5038230;28;20476;-83
2022/10/16 03:25:57;;;;;;;1.93;1.83;;;20.90;62.00;;;;;;5031422;28;20535;-84
2022/10/16 03:28:26;;;;;;;2.33;2.23;;;20.90;61.90;;;;;;5024420;28;20452;-82
2022/10/16 03:30:54;;;;;;;2.37;2.17;;;20.90;61.80;;;;;;5040487;28;20456;-83
2022/10/16 03:33:22;;;;;;;2.87;2.30;;;20.90;61.90;;;;;;5043282;28;20455;-83
2022/10/16 03:35:53;;;;;;;2.43;2.23;;;20.90;61.70;;;;;;5042609;28;20430;-83
2022/10/16 03:38:22;;;;;;;2.50;2.30;;;20.90;61.70;;;;;;5048126;28;20438;-83
2022/10/16 03:40:51;;;;;;;2.50;2.30;;;20.80;61.60;;;;;;5034037;28;20433;-83
2022/10/16 03:43:19;;;;;;;2.03;1.83;;;20.90;61.70;;;;;;5035088;28;20493;-84
2022/10/16 03:45:47;;;;;;;2.47;2.03;;;20.80;61.50;;;;;;5026148;28;20491;-82
2022/10/16 03:48:16;;;;;;;3.27;2.20;;;20.80;61.40;;;;;;5035032;28;20443;-83
2022/10/16 03:50:44;;;;;;;2.13;1.93;;;20.80;61.70;;;;;;5037475;28;20818;-83
2022/10/16 03:53:12;;;;;;;2.00;1.87;;;20.80;61.50;;;;;;5035175;28;20477;-83
2022/10/16 03:55:41;;;;;;;2.27;2.07;;;20.80;61.40;;;;;;5028670;28;20840;-83
2022/10/16 03:58:12;;;;;;;2.10;2.00;;;20.90;61.70;;;;;;5022484;28;20966;-83
2022/10/16 04:00:41;;;;;;;1.70;1.60;;;20.80;61.60;;;;;;5034539;28;20460;-83
2022/10/16 04:03:10;;;;;;;2.50;2.40;;;20.80;61.40;;;;;;5031151;28;20550;-83
2022/10/16 04:05:37;;;;;;;2.30;1.97;;;20.80;61.40;;;;;;5033477;28;20428;-83
2022/10/16 04:08:06;;;;;;;1.93;1.83;;;20.90;61.40;;;;;;5036259;28;20435;-83
2022/10/16 04:10:33;;;;;;;2.40;2.20;;;20.90;61.40;;;;;;5034971;28;20462;-83
2022/10/16 04:13:02;;;;;;;5.17;2.30;;;20.90;62.00;;;;;;5029248;28;20462;-84
2022/10/16 04:15:31;;;;;;;2.13;1.90;;;20.90;61.40;;;;;;5038834;28;20434;-82
2022/10/16 04:17:59;;;;;;;2.70;2.23;;;20.90;61.30;;;;;;5036546;28;20452;-83
2022/10/16 04:20:27;;;;;;;2.07;1.97;;;20.80;61.40;;;;;;5027788;28;20454;-84
2022/10/16 04:22:56;;;;;;;2.40;2.00;;;20.90;61.40;;;;;;5035944;28;20481;-84
2022/10/16 04:25:24;;;;;;;2.10;2.00;;;20.90;61.40;;;;;;5030641;28;20459;-83
2022/10/16 04:27:53;;;;;;;2.70;1.87;;;20.90;61.30;;;;;;5028799;28;20456;-83
2022/10/16 04:30:21;;;;;;;1.93;1.83;;;20.90;61.30;;;;;;5024249;28;20458;-84
2022/10/16 04:32:51;;;;;;;2.30;2.10;;;20.90;61.30;;;;;;5020217;28;20464;-83
2022/10/16 04:35:19;;;;;;;2.47;1.90;;;20.90;61.20;;;;;;5027479;28;20451;-84
2022/10/16 04:37:47;;;;;;;2.43;2.20;;;20.90;61.40;;;;;;5036075;28;20478;-83
2022/10/16 04:40:15;;;;;;;2.20;2.00;;;20.90;61.40;;;;;;5036815;28;20474;-83
2022/10/16 04:42:43;;;;;;;2.27;1.80;;;20.90;61.40;;;;;;5033323;28;20452;-84
2022/10/16 04:45:11;;;;;;;1.90;1.80;;;20.90;61.20;;;;;;5024298;28;20472;-82
2022/10/16 04:47:44;;;;;;;2.17;2.07;;;20.90;61.20;;;;;;5030207;28;20468;-82
2022/10/16 04:50:13;;;;;;;2.10;2.00;;;20.90;61.40;;;;;;5031958;28;20457;-83
2022/10/16 04:52:41;;;;;;;2.30;2.10;;;20.90;61.40;;;;;;5026478;28;20475;-84
2022/10/16 04:55:09;;;;;;;2.10;2.00;;;20.90;62.10;;;;;;5024800;28;20456;-83
2022/10/16 04:57:38;;;;;;;3.27;2.00;;;20.90;61.40;;;;;;5030272;28;20457;-82
2022/10/16 05:00:07;;;;;;;2.00;1.90;;;20.90;61.30;;;;;;5037342;28;20459;-83
2022/10/16 05:02:35;;;;;;;3.10;2.47;;;20.80;61.40;;;;;;5036185;28;20487;-82
2022/10/16 05:05:04;;;;;;;2.40;2.20;;;20.80;62.10;;;;;;5032234;28;20464;-82
2022/10/16 05:07:33;;;;;;;2.03;1.90;;;20.90;61.60;;;;;;5024742;28;20459;-83
2022/10/16 05:10:02;;;;;;;2.10;2.00;;;20.90;61.40;;;;;;5035957;28;20459;-85
2022/10/16 05:12:30;;;;;;;2.60;2.10;;;20.90;61.50;;;;;;5036433;28;20477;-83
2022/10/16 05:14:58;;;;;;;2.60;2.43;;;20.90;61.50;;;;;;5029415;28;20459;-81
2022/10/16 05:17:26;;;;;;;2.30;2.10;;;20.90;61.60;;;;;;5038409;28;20447;-83
2022/10/16 05:19:55;;;;;;;3.90;2.20;;;20.90;61.40;;;;;;5036441;28;20462;-83
2022/10/16 05:22:24;;;;;;;2.00;1.90;;;20.90;61.40;;;;;;5022547;28;20499;-84
2022/10/16 05:24:53;;;;;;;2.80;2.40;;;20.90;61.40;;;;;;5036244;28;20464;-83
2022/10/16 05:27:21;;;;;;;2.67;2.47;;;20.90;61.30;;;;;;5037561;28;20447;-84
2022/10/16 05:29:50;;;;;;;2.63;2.53;;;20.90;61.30;;;;;;5036305;28;20455;-84
2022/10/16 05:32:19;;;;;;;4.50;2.70;;;20.90;61.40;;;;;;5034959;28;20471;-83
2022/10/16 05:34:47;;;;;;;2.20;2.10;;;20.90;61.30;;;;;;5033666;28;20436;-84
2022/10/16 05:37:15;;;;;;;4.30;2.30;;;20.90;61.40;;;;;;5035958;28;20466;-84
2022/10/16 05:39:43;;;;;;;2.87;2.67;;;20.80;61.40;;;;;;5033554;28;20524;-83
2022/10/16 05:42:12;;;;;;;3.97;2.60;;;20.90;61.30;;;;;;5028983;28;20479;-84
2022/10/16 05:44:41;;;;;;;2.73;2.30;;;20.90;61.50;;;;;;5033960;28;20472;-83
2022/10/16 05:47:10;;;;;;;2.73;2.47;;;20.80;61.10;;;;;;5033817;28;20449;-83
2022/10/16 05:49:38;;;;;;;2.70;2.50;;;20.80;61.40;;;;;;5025269;28;20456;-83
2022/10/16 05:52:08;;;;;;;2.17;2.00;;;20.80;61.30;;;;;;5034128;28;20475;-83
2022/10/16 05:54:36;;;;;;;4.67;2.67;;;20.80;61.40;;;;;;5033455;28;20458;-82
2022/10/16 05:57:05;;;;;;;2.27;2.17;;;20.80;61.40;;;;;;5033651;28;20452;-82
2022/10/16 05:59:35;;;;;;;2.53;2.10;;;20.80;61.40;;;;;;5029178;28;20534;-82
2022/10/16 06:02:03;;;;;;;4.40;2.70;;;20.80;61.40;;;;;;5018776;28;20468;-82
2022/10/16 06:04:31;;;;;;;2.60;2.40;;;20.80;61.30;;;;;;5026821;28;20441;-82
2022/10/16 06:07:01;;;;;;;2.50;2.30;;;20.80;61.40;;;;;;5037839;28;20462;-83
2022/10/16 06:09:29;;;;;;;2.10;2.00;;;20.80;61.50;;;;;;5038609;28;20462;-83
2022/10/16 06:11:57;;;;;;;2.30;2.10;;;20.80;61.50;;;;;;5031982;28;20480;-84
2022/10/16 06:14:26;;;;;;;5.03;3.13;;;20.80;61.50;;;;;;5025655;28;20449;-84
2022/10/16 06:16:55;;;;;;;2.03;1.93;;;20.80;61.50;;;;;;5041162;28;20466;-80
2022/10/16 06:19:24;;;;;;;2.40;2.20;;;20.80;61.40;;;;;;5043979;28;20456;-82
2022/10/16 06:21:52;;;;;;;2.63;2.43;;;20.80;61.50;;;;;;5043653;28;20475;-84
2022/10/16 06:24:20;;;;;;;2.40;2.30;;;20.80;61.50;;;;;;5044451;28;20446;-85
2022/10/16 06:26:48;;;;;;;3.23;2.53;;;20.80;61.40;;;;;;5039035;28;20467;-83
2022/10/16 06:29:16;;;;;;;2.40;2.13;;;20.80;61.40;;;;;;5045273;28;20478;-85
2022/10/16 06:31:45;;;;;;;2.70;2.50;;;20.80;61.40;;;;;;5043830;28;20450;-84
2022/10/16 06:34:14;;;;;;;2.50;2.20;;;20.80;61.40;;;;;;5037939;28;20455;-84
2022/10/16 06:36:43;;;;;;;2.40;2.20;;;20.80;61.40;;;;;;5037985;28;20431;-84
2022/10/16 06:39:11;;;;;;;2.27;2.10;;;20.80;61.40;;;;;;5031267;28;20452;-83
2022/10/16 06:41:39;;;;;;;2.00;1.90;;;20.80;61.40;;;;;;5042246;28;20453;-84
2022/10/16 06:44:07;;;;;;;2.20;2.10;;;20.80;61.40;;;;;;5044360;28;20403;-84
2022/10/16 06:46:36;;;;;;;2.50;2.23;;;20.80;61.50;;;;;;5027701;28;20455;-84
2022/10/16 06:49:04;;;;;;;2.77;2.30;;;20.90;61.40;;;;;;5036303;28;20443;-83
2022/10/16 06:51:36;;;;;;;2.73;2.53;;;20.90;61.10;;;;;;5038161;28;20493;-83
2022/10/16 06:54:09;;;;;;;2.00;1.90;;;20.90;61.20;;;;;;5030058;28;20490;-83
2022/10/16 06:56:37;;;;;;;2.57;2.40;;;20.90;61.40;;;;;;5028518;28;20459;-83
2022/10/16 06:59:05;;;;;;;2.03;1.93;;;20.90;61.40;;;;;;5027767;28;20458;-83
2022/10/16 07:01:33;;;;;;;2.33;2.13;;;20.90;61.30;;;;;;5040602;28;20475;-84
2022/10/16 07:04:01;;;;;;;2.53;2.33;;;20.90;61.20;;;;;;5039426;28;20463;-84
2022/10/16 07:06:33;;;;;;;2.90;2.20;;;20.90;61.20;;;;;;5040362;28;20469;-83
2022/10/16 07:09:03;;;;;;;2.17;1.97;;;20.90;61.30;;;;;;5039137;28;20466;-84
2022/10/16 07:11:31;;;;;;;2.17;2.07;;;20.90;61.30;;;;;;5038698;28;20472;-82
2022/10/16 07:13:59;;;;;;;2.40;2.20;;;20.90;61.20;;;;;;5034836;28;20462;-85
2022/10/16 07:16:27;;;;;;;2.40;2.30;;;21.00;61.40;;;;;;5043292;28;20450;-85
2022/10/16 07:18:58;;;;;;;2.67;2.47;;;21.00;61.90;;;;;;5043621;28;20474;-85
2022/10/16 07:21:28;;;;;;;2.87;2.10;;;21.00;61.10;;;;;;5042883;28;20450;-83
2022/10/16 07:23:59;;;;;;;2.70;2.00;;;21.00;61.10;;;;;;5041956;28;20463;-84
2022/10/16 07:26:27;;;;;;;2.97;2.10;;;21.10;61.10;;;;;;5039664;28;20502;-85
2022/10/16 07:28:56;;;;;;;2.63;2.40;;;21.20;60.90;;;;;;5045156;28;20522;-85
2022/10/16 07:31:24;;;;;;;2.10;2.00;;;21.20;60.90;;;;;;5039476;28;20471;-83
2022/10/16 07:33:53;;;;;;;2.30;2.07;;;21.30;60.70;;;;;;5038881;28;20466;-83
2022/10/16 07:36:21;;;;;;;2.07;1.93;;;21.30;60.70;;;;;;5035179;28;20440;-83
2022/10/16 07:38:49;;;;;;;2.53;2.33;;;21.30;60.70;;;;;;5042463;28;20418;-84
2022/10/16 07:41:23;;;;;;;2.20;2.10;;;21.30;60.60;;;;;;5023454;28;20464;-83
2022/10/16 07:43:52;;;;;;;2.87;2.10;;;21.40;60.70;;;;;;5037071;28;20430;-83
2022/10/16 07:46:20;;;;;;;1.80;1.70;;;21.40;60.60;;;;;;5037851;28;20453;-83
2022/10/16 07:48:48;;;;;;;1.90;1.80;;;21.50;60.50;;;;;;5041061;28;20439;-82
2022/10/16 07:51:17;;;;;;;4.27;2.10;;;21.50;60.50;;;;;;5040884;28;20466;-84
2022/10/16 07:53:45;;;;;;;2.83;1.90;;;21.50;60.30;;;;;;5042612;28;20446;-84
2022/10/16 07:56:14;;;;;;;2.17;2.07;;;21.50;60.20;;;;;;5032389;28;20418;-84
2022/10/16 07:58:44;;;;;;;1.80;1.70;;;21.50;60.40;;;;;;5043112;28;20422;-82
2022/10/16 08:01:12;;;;;;;1.73;1.63;;;21.50;60.40;;;;;;5042591;28;20447;-83
2022/10/16 08:03:42;;;;;;;2.40;1.90;;;21.50;60.20;;;;;;5035278;28;20457;-83
2022/10/16 08:06:10;;;;;;;1.93;1.60;;;21.60;60.40;;;;;;5025565;28;20467;-84
2022/10/16 08:08:38;;;;;;;2.00;1.80;;;21.60;60.50;;;;;;5042149;28;20440;-83
2022/10/16 08:11:07;;;;;;;3.10;2.10;;;21.80;60.50;;;;;;5041844;28;20451;-83
2022/10/16 08:13:35;;;;;;;2.40;2.17;;;21.90;60.40;;;;;;5042830;28;20458;-83
2022/10/16 08:16:07;;;;;;;2.10;1.80;;;22.10;60.60;;;;;;5042147;28;20421;-82
2022/10/16 08:18:36;;;;;;;1.97;1.87;;;22.30;60.40;;;;;;5036485;28;20448;-83
2022/10/16 08:21:05;;;;;;;1.87;1.77;;;22.50;60.20;;;;;;5031649;28;20446;-82
2022/10/16 08:23:33;;;;;;;2.10;1.90;;;22.80;59.90;;;;;;5032113;28;20439;-82
2022/10/16 08:26:03;;;;;;;1.93;1.70;;;23.00;59.50;;;;;;5036588;28;20475;-82
2022/10/16 08:28:31;;;;;;;2.10;2.00;;;23.10;59.20;;;;;;5036474;28;20438;-82
2022/10/16 08:31:08;;;;;;;2.10;2.00;;;23.20;59.40;;;;;;5036801;28;20418;-83
2022/10/16 08:33:36;;;;;;;2.93;2.20;;;23.50;59.40;;;;;;5036941;28;20425;-82
2022/10/16 08:36:05;;;;;;;1.70;1.60;;;23.80;59.40;;;;;;5037872;28;20432;-82
2022/10/16 08:38:33;;;;;;;1.50;1.40;;;23.90;58.80;;;;;;5021729;28;20422;-84
2022/10/16 08:41:10;;;;;;;2.00;1.90;;;24.00;58.40;;;;;;5020433;28;20512;-82
2022/10/16 08:44:07;;;;;;;2.80;2.07;;;24.00;58.60;;;;;;5037233;28;20420;-83
2022/10/16 08:46:42;;;;;;;2.50;1.60;;;24.20;59.00;;;;;;5035023;28;20472;-83
2022/10/16 08:49:17;;;;;;;7.27;2.00;;;24.30;58.40;;;;;;5035787;28;20455;-82
2022/10/16 08:51:46;;;;;;;1.70;1.60;;;24.50;58.50;;;;;;5035327;28;20442;-82
2022/10/16 08:54:22;;;;;;;1.40;1.40;;;24.60;58.00;;;;;;5034112;28;20426;-83
2022/10/16 08:56:50;;;;;;;1.83;1.73;;;24.60;58.20;;;;;;5034279;28;20482;-83
2022/10/16 08:59:18;;;;;;;2.00;1.90;;;24.50;57.80;;;;;;5034844;28;20432;-84
2022/10/16 09:01:50;;;;;;;2.37;2.20;;;24.40;58.00;;;;;;5033343;28;20464;-83
2022/10/16 09:04:53;;;;;;;1.97;1.87;;;24.40;58.10;;;;;;5033105;28;20410;-83
2022/10/16 09:07:26;;;;;;;2.20;2.00;;;24.50;58.50;;;;;;5034161;28;20471;-83
2022/10/16 09:10:05;;;;;;;9.30;2.10;;;24.50;58.20;;;;;;5038173;28;20422;-85
2022/10/16 09:12:37;;;;;;;2.97;2.17;;;24.50;58.20;;;;;;5040641;28;20460;-83
2022/10/16 09:15:14;;;;;;;2.07;1.97;;;24.60;58.40;;;;;;5033656;28;20409;-83
2022/10/16 09:17:49;;;;;;;2.93;2.10;;;24.70;58.60;;;;;;5038338;28;20390;-84
2022/10/16 09:20:34;;;;;;;2.30;2.20;;;24.90;58.20;;;;;;5035481;28;20435;-84
2022/10/16 09:23:16;;;;;;;2.47;2.13;;;25.00;58.00;;;;;;5035131;28;20460;-83
2022/10/16 09:25:45;;;;;;;1.87;1.77;;;25.20;57.80;;;;;;5037533;28;20416;-84
2022/10/16 09:28:13;;;;;;;2.37;2.13;;;25.20;57.60;;;;;;5035624;28;20462;-84
2022/10/16 09:30:41;;;;;;;1.83;1.70;;;25.20;57.60;;;;;;5035876;28;20426;-84
2022/10/16 09:33:12;;;;;;;2.10;1.90;;;25.30;57.90;;;;;;5035143;28;20445;-85
2022/10/16 09:35:41;;;;;;;2.20;2.00;;;25.50;58.00;;;;;;5036377;28;20447;-84
2022/10/16 09:38:09;;;;;;;2.10;2.00;;;25.70;57.80;;;;;;5034681;28;20437;-83
2022/10/16 09:40:38;;;;;;;2.07;1.87;;;26.00;57.70;;;;;;5038870;28;20449;-80
2022/10/16 09:43:18;;;;;;;2.37;1.93;;;26.20;57.60;;;;;;5038903;28;20467;-80
2022/10/16 09:45:55;;;;;;;2.33;2.10;;;26.50;57.50;;;;;;5037710;28;20572;-80
2022/10/16 09:48:24;;;;;;;2.13;2.00;;;26.80;57.20;;;;;;5036382;28;20462;-79
2022/10/16 09:51:00;;;;;;;3.73;2.37;;;27.10;57.00;;;;;;5036791;28;20432;-80
2022/10/16 09:53:42;;;;;;;2.97;2.10;;;27.30;56.40;;;;;;5033994;28;20543;-81
2022/10/16 09:56:13;;;;;;;3.73;2.40;;;27.50;56.10;;;;;;5034016;28;20442;-81
2022/10/16 09:58:50;;;;;;;2.17;2.07;;;27.70;55.90;;;;;;5038282;28;20451;-83
2022/10/16 10:01:18;;;;;;;2.13;2.03;;;27.90;55.70;;;;;;5036851;28;20453;-81
2022/10/16 10:03:48;;;;;;;2.67;2.10;;;28.30;55.40;;;;;;5040837;28;20458;-82
2022/10/16 10:06:22;;;;;;;2.93;2.17;;;28.60;54.90;;;;;;5043783;28;20443;-82
2022/10/16 10:09:05;;;;;;;2.37;2.27;;;28.70;54.20;;;;;;5040288;28;20477;-81
2022/10/16 10:11:44;;;;;;;2.00;1.90;;;28.80;54.00;;;;;;5030589;28;20472;-82
2022/10/16 10:14:28;;;;;;;2.30;2.20;;;28.90;54.00;;;;;;5031298;28;20442;-82
2022/10/16 10:17:18;;;;;;;2.53;2.33;;;29.00;53.80;;;;;;5037889;28;20526;-82
2022/10/16 10:19:53;;;;;;;2.90;2.40;;;29.10;53.60;;;;;;5035843;28;20452;-81
2022/10/16 10:22:30;;;;;;;2.60;2.10;;;29.20;53.20;;;;;;5038758;28;20489;-81
2022/10/16 10:25:01;;;;;;;2.80;2.10;;;29.20;52.90;;;;;;5036813;28;20454;-81
2022/10/16 10:27:34;;;;;;;2.00;1.90;;;29.20;52.80;;;;;;5037298;28;20471;-81
2022/10/16 10:30:04;;;;;;;2.93;2.50;;;29.20;52.90;;;;;;5038827;28;20439;-81
2022/10/16 10:32:35;;;;;;;2.47;2.27;;;29.30;52.90;;;;;;5041442;28;20474;-81
2022/10/16 10:35:13;;;;;;;2.20;1.93;;;29.50;53.00;;;;;;5033353;28;20457;-80
2022/10/16 10:37:50;;;;;;;3.20;2.20;;;29.80;52.70;;;;;;5041941;28;20438;-80
2022/10/16 10:40:25;;;;;;;2.13;2.00;;;30.00;52.40;;;;;;5038578;28;20530;-81
2022/10/16 10:42:56;;;;;;;2.70;1.90;;;30.30;52.10;;;;;;5041518;28;20478;-81
2022/10/16 10:45:27;;;;;;;2.20;2.10;;;30.60;51.70;;;;;;5039406;28;20462;-80
2022/10/16 10:48:13;;;;;;;2.80;2.27;;;30.90;51.40;;;;;;5038695;28;20459;-80
2022/10/16 10:50:44;;;;;;;2.40;2.20;;;31.20;51.20;;;;;;5040288;28;20482;-81
2022/10/16 10:53:19;;;;;;;2.10;1.90;;;31.40;50.60;;;;;;5039442;28;20478;-81
2022/10/16 10:55:50;;;;;;;2.23;2.03;;;31.60;49.70;;;;;;5032134;28;20451;-81
2022/10/16 10:58:50;;;;;;;2.60;2.10;;;31.80;50.10;;;;;;5038891;28;20455;-82
2022/10/16 11:01:19;;;;;;;3.47;1.80;;;32.50;49.50;;;;;;5025459;28;20443;-82
2022/10/16 11:03:59;;;;;;;2.03;1.80;;;32.70;47.50;;;;;;5040481;28;20439;-81
2022/10/16 11:06:30;;;;;;;1.90;1.80;;;33.60;47.40;;;;;;5039176;28;20443;-83
2022/10/16 11:09:00;;;;;;;2.20;2.00;;;34.70;45.60;;;;;;5039649;28;20451;-83
2022/10/16 11:11:31;;;;;;;4.27;1.87;;;35.70;43.00;;;;;;5039428;28;20444;-81
2022/10/16 11:14:02;;;;;;;2.43;2.23;;;36.70;41.50;;;;;;5036792;28;20454;-82
2022/10/16 11:16:31;;;;;;;3.33;2.00;;;37.50;40.60;;;;;;5035251;28;20447;-83
2022/10/16 11:19:00;;;;;;;2.10;1.90;;;38.00;39.30;;;;;;5034960;28;20436;-82
2022/10/16 11:21:31;;;;;;;1.80;1.70;;;38.60;38.40;;;;;;5035122;28;20468;-82
2022/10/16 11:24:01;;;;;;;1.53;1.53;;;39.40;37.10;;;;;;5035463;28;20451;-82
2022/10/16 11:26:31;;;;;;;2.17;1.67;;;40.20;34.90;;;;;;5035208;28;20439;-82
2022/10/16 11:29:00;;;;;;;2.40;1.73;;;40.60;34.90;;;;;;5035672;28;20474;-82
2022/10/16 11:31:33;;;;;;;2.10;2.00;;;40.20;34.40;;;;;;5033883;28;20459;-82
2022/10/16 11:34:15;;;;;;;6.43;1.97;;;40.00;33.30;;;;;;5026713;28;20452;-81
2022/10/16 11:36:46;;;;;;;2.80;1.87;;;38.80;35.50;;;;;;5036936;28;20439;-81
2022/10/16 11:39:20;;;;;;;3.03;1.77;;;38.60;35.80;;;;;;5038373;28;20443;-82
2022/10/16 11:41:50;;;;;;;1.67;1.57;;;37.80;36.00;;;;;;5036913;28;20470;-83
2022/10/16 11:44:26;;;;;;;3.00;1.97;;;36.80;37.20;;;;;;5037342;28;20470;-82
2022/10/16 11:47:01;;;;;;;2.93;1.83;;;35.80;38.90;;;;;;5036944;28;20442;-81
2022/10/16 11:49:50;;;;;;;3.87;1.80;;;35.10;40.10;;;;;;5036500;28;20432;-81
2022/10/16 11:52:21;;;;;;;1.70;1.60;;;34.60;41.00;;;;;;5029082;28;20481;-82
2022/10/16 11:54:51;;;;;;;3.27;2.10;;;34.20;41.80;;;;;;5016186;28;20452;-81
2022/10/16 11:57:21;;;;;;;3.83;1.90;;;34.40;43.90;;;;;;5016519;28;20448;-82
2022/10/16 11:59:51;;;;;;;3.13;1.73;;;35.10;42.70;;;;;;5017441;28;20459;-79
2022/10/16 12:02:34;;;;;;;2.20;2.00;;;35.50;40.10;;;;;;5016033;28;20468;-81
2022/10/16 12:05:08;;;;;;;2.80;2.10;;;36.70;40.00;;;;;;5016566;28;20454;-83
2022/10/16 12:07:39;;;;;;;3.43;1.63;;;37.90;37.30;;;;;;5024663;28;20482;-83
2022/10/16 12:10:20;;;;;;;6.00;1.90;;;39.00;36.00;;;;;;5026698;28;20451;-82
2022/10/16 12:12:57;;;;;;;1.80;1.70;;;39.60;35.10;;;;;;5034238;28;20559;-83
2022/10/16 12:15:26;;;;;;;1.70;1.60;;;40.10;34.20;;;;;;5034391;28;20452;-83
2022/10/16 12:18:22;;;;;;;2.03;1.73;;;40.20;32.90;;;;;;5050801;28;20446;-83
2022/10/16 12:20:58;;;;;;;1.90;1.63;;;41.10;32.80;;;;;;5057236;28;20449;-84
2022/10/16 12:23:28;;;;;;;2.80;1.77;;;40.40;31.80;;;;;;5057468;28;20443;-84
2022/10/16 12:25:56;;;;;;;2.23;1.83;;;39.30;33.40;;;;;;5053618;28;20479;-83
2022/10/16 12:28:28;;;;;;;6.40;2.00;;;39.30;35.40;;;;;;5051669;28;20474;-83
2022/10/16 12:30:57;;;;;;;3.77;2.03;;;39.70;34.80;;;;;;5057197;28;20443;-84
2022/10/16 12:33:26;;;;;;;3.67;1.43;;;40.10;32.20;;;;;;5056765;28;20454;-84
2022/10/16 12:35:54;;;;;;;2.10;1.70;;;39.50;34.80;;;;;;5048692;28;20440;-83
2022/10/16 12:38:25;;;;;;;4.53;2.03;;;39.80;33.90;;;;;;5038485;28;20436;-83
2022/10/16 12:40:59;;;;;;;2.63;2.10;;;38.50;34.10;;;;;;5034784;28;20474;-83
2022/10/16 12:43:39;;;;;;;2.27;1.93;;;38.00;35.00;;;;;;5025555;28;20447;-83
2022/10/16 12:46:25;;;;;;;2.23;2.10;;;38.10;36.40;;;;;;5037400;28;20454;-83
2022/10/16 12:48:54;;;;;;;2.67;2.13;;;39.30;34.70;;;;;;5038204;28;20473;-83
2022/10/16 12:51:35;;;;;;;3.33;1.90;;;40.20;33.40;;;;;;5037622;28;20470;-83
2022/10/16 12:54:04;;;;;;;2.67;1.80;;;40.90;32.40;;;;;;5045102;28;20443;-81
2022/10/16 12:56:39;;;;;;;2.50;1.43;;;41.50;31.70;;;;;;5037668;28;20462;-83
2022/10/16 12:59:18;;;;;;;1.90;1.70;;;42.00;30.90;;;;;;5025515;28;20442;-81
2022/10/16 13:01:57;;;;;;;1.73;1.63;;;42.40;30.50;;;;;;5019235;28;20469;-83
2022/10/16 13:04:49;;;;;;;1.90;1.80;;;42.70;30.00;;;;;;5034356;28;20527;-83
2022/10/16 13:07:30;;;;;;;2.50;1.50;;;43.00;29.80;;;;;;5015417;28;20458;-83